createdAt,value
2018-06-14T06:43:21.545Z,13.8
2018-06-14T06:53:35.748Z,13.8
2018-06-14T07:03:50.082Z,14.2
2018-06-14T07:14:36.541Z,15.1
2018-06-14T07:24:48.176Z,15.2
2018-06-14T07:36:16.967Z,17.3
2018-06-14T07:46:57.307Z,17.3
2018-06-14T07:57:12.790Z,19.1
2018-06-14T08:07:57.929Z,22.3
2018-06-14T08:18:42.813Z,23.7
2018-06-14T08:29:37.558Z,25.0
2018-06-14T08:39:52.510Z,25.0
2018-06-14T08:50:06.082Z,25.9
2018-06-14T09:00:57.401Z,25.7
2018-06-14T09:12:24.346Z,24.9
2018-06-14T09:22:38.036Z,24.9
2018-06-14T09:32:52.994Z,25.0
2018-06-14T09:43:28.870Z,24.9
2018-06-14T09:56:20.914Z,27.0
2018-06-14T10:13:08.152Z,27.5
2018-06-14T10:47:35.796Z,28.1
2018-06-14T10:57:49.759Z,28.5
2018-06-14T11:08:34.236Z,28.8
2018-06-14T11:18:49.285Z,28.8
2018-06-14T11:29:03.786Z,28.8
2018-06-14T11:39:24.639Z,28.8
2018-06-14T11:49:38.681Z,28.9
2018-06-14T11:59:52.418Z,28.9
2018-06-14T12:10:16.927Z,28.8
2018-06-14T12:20:31.239Z,28.7
2018-06-14T12:30:53.343Z,28.8
2018-06-14T12:41:14.611Z,29.0
2018-06-14T12:51:28.757Z,29.0
2018-06-14T13:01:43.030Z,28.8
2018-06-14T13:12:38.873Z,28.1
2018-06-14T13:22:53.366Z,28.1
2018-06-14T13:33:44.989Z,26.9
2018-06-14T13:44:00.172Z,26.9
2018-06-14T13:54:14.249Z,26.2
2018-06-14T14:05:08.345Z,25.2
2018-06-14T14:15:22.372Z,25.1
2018-06-14T14:26:07.024Z,24.2
2018-06-14T14:36:21.262Z,24.1
2018-06-14T14:47:14.505Z,23.2
2018-06-14T14:57:28.536Z,23.1
2018-06-14T15:10:43.782Z,22.2
2018-06-14T16:16:07.560Z,20.1
2018-06-14T16:26:44.480Z,20.2
2018-06-14T16:37:13.630Z,19.8
2018-06-14T17:51:35.147Z,19.3
2018-06-14T19:47:47.868Z,17.7
2018-06-14T19:58:33.885Z,17.6
2018-06-14T20:08:57.214Z,17.6
2018-06-14T20:19:27.192Z,17.3
2018-06-14T20:30:39.228Z,17.0
2018-06-14T21:02:01.394Z,16.8
2018-06-14T21:12:36.612Z,16.7
2018-06-14T21:22:58.432Z,16.6
2018-06-14T21:43:42.366Z,16.4
2018-06-14T21:53:58.741Z,16.4
2018-06-14T22:14:50.454Z,16.3
2018-06-14T22:25:22.634Z,16.2
2018-06-14T22:37:03.503Z,16.2
2018-06-14T22:48:02.894Z,16.2
2018-06-14T22:58:40.389Z,16.2
2018-06-14T23:09:07.032Z,16.2
2018-06-14T23:30:06.475Z,16.1
2018-06-14T23:40:47.939Z,16.1
2018-06-14T23:51:11.573Z,16.0
